sensor_id;sensor_type;location;lat;lon;timestamp;P1;durP1;ratioP1;P2;durP2;ratioP2
53688;SDS011;39583;54.682;30.662;2023-12-04T07:40:30;16.25;;;7.18;;
53688;SDS011;39583;54.682;30.662;2023-12-04T07:42:59;14.13;;;6.57;;
53688;SDS011;39583;54.682;30.662;2023-12-04T07:45:27;11.13;;;5.20;;
53688;SDS011;39583;54.682;30.662;2023-12-04T07:47:55;10.75;;;4.72;;
53688;SDS011;39583;54.682;30.662;2023-12-04T07:50:22;8.35;;;3.97;;
53688;SDS011;39583;54.682;30.662;2023-12-04T07:52:51;11.85;;;6.38;;
53688;SDS011;39583;54.682;30.662;2023-12-04T07:55:18;12.93;;;5.07;;
53688;SDS011;39583;54.682;30.662;2023-12-04T07:57:46;15.45;;;5.30;;
53688;SDS011;39583;54.682;30.662;2023-12-04T08:00:14;12.38;;;5.20;;
53688;SDS011;39583;54.682;30.662;2023-12-04T08:02:44;11.15;;;5.22;;
53688;SDS011;39583;54.682;30.662;2023-12-04T08:05:13;16.65;;;6.93;;
53688;SDS011;39583;54.682;30.662;2023-12-04T08:07:40;12.95;;;5.75;;
53688;SDS011;39583;54.682;30.662;2023-12-04T08:10:08;14.63;;;6.03;;
53688;SDS011;39583;54.682;30.662;2023-12-04T08:12:36;11.43;;;5.65;;
53688;SDS011;39583;54.682;30.662;2023-12-04T08:15:04;17.27;;;6.82;;
53688;SDS011;39583;54.682;30.662;2023-12-04T08:17:32;10.63;;;4.68;;
53688;SDS011;39583;54.682;30.662;2023-12-04T08:20:00;11.57;;;5.22;;
53688;SDS011;39583;54.682;30.662;2023-12-04T08:22:27;24.33;;;6.13;;
53688;SDS011;39583;54.682;30.662;2023-12-04T08:24:55;11.07;;;4.95;;
53688;SDS011;39583;54.682;30.662;2023-12-04T08:27:22;14.27;;;3.88;;
53688;SDS011;39583;54.682;30.662;2023-12-04T08:29:50;10.45;;;4.55;;
53688;SDS011;39583;54.682;30.662;2023-12-04T08:32:18;9.48;;;4.65;;
53688;SDS011;39583;54.682;30.662;2023-12-04T08:34:47;13.88;;;4.43;;
53688;SDS011;39583;54.682;30.662;2023-12-04T08:37:14;15.48;;;5.60;;
53688;SDS011;39583;54.682;30.662;2023-12-04T08:39:42;14.52;;;4.47;;
53688;SDS011;39583;54.682;30.662;2023-12-04T08:42:11;13.90;;;6.05;;
53688;SDS011;39583;54.682;30.662;2023-12-04T08:44:49;8.20;;;4.30;;
53688;SDS011;39583;54.682;30.662;2023-12-04T08:47:16;11.77;;;5.20;;
53688;SDS011;39583;54.682;30.662;2023-12-04T08:49:44;13.82;;;5.88;;
53688;SDS011;39583;54.682;30.662;2023-12-04T08:52:15;13.30;;;5.20;;
53688;SDS011;39583;54.682;30.662;2023-12-04T08:54:43;12.63;;;5.10;;
53688;SDS011;39583;54.682;30.662;2023-12-04T08:57:11;14.20;;;5.15;;
53688;SDS011;39583;54.682;30.662;2023-12-04T08:59:38;12.80;;;5.28;;
53688;SDS011;39583;54.682;30.662;2023-12-04T09:02:06;17.65;;;6.43;;
53688;SDS011;39583;54.682;30.662;2023-12-04T09:04:37;12.77;;;5.50;;
53688;SDS011;39583;54.682;30.662;2023-12-04T09:07:05;15.23;;;6.05;;
53688;SDS011;39583;54.682;30.662;2023-12-04T09:09:36;11.15;;;4.53;;
53688;SDS011;39583;54.682;30.662;2023-12-04T09:12:04;9.55;;;5.40;;
53688;SDS011;39583;54.682;30.662;2023-12-04T09:14:31;13.80;;;5.82;;
53688;SDS011;39583;54.682;30.662;2023-12-04T09:16:59;11.88;;;4.32;;
53688;SDS011;39583;54.682;30.662;2023-12-04T09:19:27;13.95;;;5.97;;
53688;SDS011;39583;54.682;30.662;2023-12-04T09:21:55;7.97;;;4.10;;
53688;SDS011;39583;54.682;30.662;2023-12-04T09:24:38;10.75;;;4.82;;
53688;SDS011;39583;54.682;30.662;2023-12-04T09:27:06;10.07;;;4.90;;
53688;SDS011;39583;54.682;30.662;2023-12-04T09:29:34;10.77;;;4.63;;
53688;SDS011;39583;54.682;30.662;2023-12-04T09:32:01;13.23;;;4.75;;
53688;SDS011;39583;54.682;30.662;2023-12-04T09:34:29;9.55;;;4.55;;
53688;SDS011;39583;54.682;30.662;2023-12-04T09:36:57;10.73;;;5.30;;
53688;SDS011;39583;54.682;30.662;2023-12-04T09:39:36;12.23;;;4.78;;
53688;SDS011;39583;54.682;30.662;2023-12-04T09:42:04;8.30;;;4.53;;
53688;SDS011;39583;54.682;30.662;2023-12-04T09:44:32;12.57;;;4.00;;
53688;SDS011;39583;54.682;30.662;2023-12-04T09:47:01;7.63;;;4.50;;
53688;SDS011;39583;54.682;30.662;2023-12-04T09:49:30;10.43;;;4.35;;
53688;SDS011;39583;54.682;30.662;2023-12-04T09:51:58;10.73;;;4.95;;
53688;SDS011;39583;54.682;30.662;2023-12-04T09:54:28;10.98;;;5.80;;
53688;SDS011;39583;54.682;30.662;2023-12-04T09:56:57;8.70;;;4.78;;
53688;SDS011;39583;54.682;30.662;2023-12-04T09:59:25;5.68;;;3.53;;
53688;SDS011;39583;54.682;30.662;2023-12-04T10:01:53;16.60;;;6.88;;
53688;SDS011;39583;54.682;30.662;2023-12-04T10:04:21;8.70;;;3.70;;
53688;SDS011;39583;54.682;30.662;2023-12-04T10:06:50;10.43;;;4.72;;
53688;SDS011;39583;54.682;30.662;2023-12-04T10:09:19;12.32;;;5.75;;
53688;SDS011;39583;54.682;30.662;2023-12-04T10:11:52;13.15;;;5.45;;
53688;SDS011;39583;54.682;30.662;2023-12-04T10:14:23;9.70;;;5.28;;
53688;SDS011;39583;54.682;30.662;2023-12-04T10:16:51;12.45;;;5.32;;
53688;SDS011;39583;54.682;30.662;2023-12-04T10:19:23;15.68;;;5.88;;
53688;SDS011;39583;54.682;30.662;2023-12-04T10:21:55;11.18;;;5.57;;
53688;SDS011;39583;54.682;30.662;2023-12-04T10:24:28;6.40;;;3.67;;
53688;SDS011;39583;54.682;30.662;2023-12-04T10:26:56;7.10;;;3.95;;
53688;SDS011;39583;54.682;30.662;2023-12-04T10:29:24;8.20;;;4.30;;
53688;SDS011;39583;54.682;30.662;2023-12-04T10:31:54;13.90;;;4.80;;
53688;SDS011;39583;54.682;30.662;2023-12-04T10:34:23;12.75;;;5.78;;
53688;SDS011;39583;54.682;30.662;2023-12-04T10:36:53;11.77;;;5.57;;
53688;SDS011;39583;54.682;30.662;2023-12-04T10:39:20;6.40;;;3.05;;
53688;SDS011;39583;54.682;30.662;2023-12-04T10:41:58;11.05;;;4.53;;
53688;SDS011;39583;54.682;30.662;2023-12-04T10:44:29;13.20;;;5.50;;
53688;SDS011;39583;54.682;30.662;2023-12-04T10:46:59;12.40;;;5.43;;
53688;SDS011;39583;54.682;30.662;2023-12-04T10:49:28;7.38;;;4.38;;
53688;SDS011;39583;54.682;30.662;2023-12-04T10:51:56;11.60;;;5.15;;
53688;SDS011;39583;54.682;30.662;2023-12-04T10:54:27;12.95;;;5.28;;
53688;SDS011;39583;54.682;30.662;2023-12-04T10:56:56;10.80;;;5.53;;
53688;SDS011;39583;54.682;30.662;2023-12-04T10:59:32;13.88;;;5.57;;
53688;SDS011;39583;54.682;30.662;2023-12-04T11:02:05;13.07;;;5.45;;
53688;SDS011;39583;54.682;30.662;2023-12-04T11:04:36;11.02;;;5.53;;
53688;SDS011;39583;54.682;30.662;2023-12-04T11:07:05;14.80;;;6.35;;
53688;SDS011;39583;54.682;30.662;2023-12-04T11:09:37;10.90;;;4.93;;
53688;SDS011;39583;54.682;30.662;2023-12-04T11:12:08;11.63;;;4.80;;
53688;SDS011;39583;54.682;30.662;2023-12-04T11:14:45;15.50;;;6.53;;
53688;SDS011;39583;54.682;30.662;2023-12-04T11:17:18;8.32;;;4.32;;
53688;SDS011;39583;54.682;30.662;2023-12-04T11:22:25;14.35;;;5.45;;
53688;SDS011;39583;54.682;30.662;2023-12-04T11:24:53;13.02;;;5.28;;
53688;SDS011;39583;54.682;30.662;2023-12-04T11:27:22;19.35;;;6.88;;
53688;SDS011;39583;54.682;30.662;2023-12-04T11:29:50;10.88;;;6.60;;
53688;SDS011;39583;54.682;30.662;2023-12-04T11:32:18;12.45;;;6.10;;
53688;SDS011;39583;54.682;30.662;2023-12-04T11:34:47;13.82;;;5.57;;
53688;SDS011;39583;54.682;30.662;2023-12-04T11:37:16;10.13;;;5.40;;
53688;SDS011;39583;54.682;30.662;2023-12-04T11:39:46;12.15;;;5.38;;
53688;SDS011;39583;54.682;30.662;2023-12-04T11:42:33;11.10;;;5.60;;
53688;SDS011;39583;54.682;30.662;2023-12-04T11:45:01;19.40;;;7.00;;
53688;SDS011;39583;54.682;30.662;2023-12-04T11:47:29;18.90;;;7.72;;
53688;SDS011;39583;54.682;30.662;2023-12-04T11:49:58;17.83;;;6.65;;
53688;SDS011;39583;54.682;30.662;2023-12-04T11:52:32;13.32;;;6.93;;
53688;SDS011;39583;54.682;30.662;2023-12-04T11:55:03;14.32;;;6.75;;
53688;SDS011;39583;54.682;30.662;2023-12-04T11:57:37;11.60;;;4.75;;
53688;SDS011;39583;54.682;30.662;2023-12-04T12:00:14;10.98;;;5.90;;
53688;SDS011;39583;54.682;30.662;2023-12-04T12:08:09;15.50;;;6.78;;
53688;SDS011;39583;54.682;30.662;2023-12-04T12:10:38;20.40;;;6.82;;
53688;SDS011;39583;54.682;30.662;2023-12-04T12:13:05;22.15;;;8.52;;
53688;SDS011;39583;54.682;30.662;2023-12-04T12:15:33;14.27;;;6.63;;
53688;SDS011;39583;54.682;30.662;2023-12-04T12:18:01;18.98;;;7.63;;
53688;SDS011;39583;54.682;30.662;2023-12-04T12:20:29;13.63;;;6.03;;
53688;SDS011;39583;54.682;30.662;2023-12-04T12:22:56;18.58;;;7.15;;
53688;SDS011;39583;54.682;30.662;2023-12-04T12:25:24;23.42;;;7.65;;
53688;SDS011;39583;54.682;30.662;2023-12-04T12:27:53;21.13;;;6.93;;
53688;SDS011;39583;54.682;30.662;2023-12-04T12:30:21;15.68;;;7.78;;
53688;SDS011;39583;54.682;30.662;2023-12-04T12:32:50;17.17;;;9.18;;
53688;SDS011;39583;54.682;30.662;2023-12-04T12:35:19;17.15;;;7.85;;
53688;SDS011;39583;54.682;30.662;2023-12-04T12:37:47;21.77;;;8.00;;
53688;SDS011;39583;54.682;30.662;2023-12-04T12:40:15;19.50;;;9.60;;
53688;SDS011;39583;54.682;30.662;2023-12-04T12:42:42;18.45;;;8.15;;
53688;SDS011;39583;54.682;30.662;2023-12-04T12:45:10;17.38;;;8.20;;
53688;SDS011;39583;54.682;30.662;2023-12-04T12:47:42;14.95;;;6.55;;
53688;SDS011;39583;54.682;30.662;2023-12-04T12:50:11;20.57;;;8.40;;
53688;SDS011;39583;54.682;30.662;2023-12-04T12:52:42;18.95;;;7.28;;
53688;SDS011;39583;54.682;30.662;2023-12-04T12:55:10;21.10;;;7.72;;
53688;SDS011;39583;54.682;30.662;2023-12-04T12:57:38;17.60;;;6.90;;
53688;SDS011;39583;54.682;30.662;2023-12-04T13:00:06;18.23;;;7.47;;
53688;SDS011;39583;54.682;30.662;2023-12-04T13:02:37;18.15;;;8.23;;
53688;SDS011;39583;54.682;30.662;2023-12-04T13:05:05;16.30;;;7.65;;
53688;SDS011;39583;54.682;30.662;2023-12-04T13:07:39;18.75;;;7.63;;
53688;SDS011;39583;54.682;30.662;2023-12-04T13:10:09;29.15;;;8.82;;
53688;SDS011;39583;54.682;30.662;2023-12-04T13:12:38;16.60;;;8.13;;
53688;SDS011;39583;54.682;30.662;2023-12-04T13:15:07;20.10;;;8.27;;
53688;SDS011;39583;54.682;30.662;2023-12-04T13:17:35;17.45;;;8.68;;
53688;SDS011;39583;54.682;30.662;2023-12-04T13:20:02;21.65;;;8.77;;
53688;SDS011;39583;54.682;30.662;2023-12-04T13:22:36;22.10;;;8.25;;
53688;SDS011;39583;54.682;30.662;2023-12-04T13:25:03;25.15;;;8.77;;
53688;SDS011;39583;54.682;30.662;2023-12-04T13:27:34;25.25;;;8.40;;
53688;SDS011;39583;54.682;30.662;2023-12-04T13:30:02;15.23;;;7.43;;
53688;SDS011;39583;54.682;30.662;2023-12-04T13:32:29;21.27;;;8.68;;
53688;SDS011;39583;54.682;30.662;2023-12-04T13:34:57;28.35;;;9.13;;
53688;SDS011;39583;54.682;30.662;2023-12-04T13:37:25;24.92;;;9.75;;
53688;SDS011;39583;54.682;30.662;2023-12-04T13:39:55;16.98;;;7.60;;
53688;SDS011;39583;54.682;30.662;2023-12-04T13:42:29;20.65;;;8.77;;
53688;SDS011;39583;54.682;30.662;2023-12-04T13:45:15;17.33;;;7.63;;
53688;SDS011;39583;54.682;30.662;2023-12-04T13:47:43;18.42;;;8.05;;
53688;SDS011;39583;54.682;30.662;2023-12-04T13:50:14;18.15;;;8.10;;
53688;SDS011;39583;54.682;30.662;2023-12-04T13:52:42;18.23;;;7.65;;
53688;SDS011;39583;54.682;30.662;2023-12-04T13:55:10;17.15;;;7.97;;
53688;SDS011;39583;54.682;30.662;2023-12-04T13:57:48;18.05;;;7.30;;
53688;SDS011;39583;54.682;30.662;2023-12-04T14:00:27;19.33;;;8.43;;
53688;SDS011;39583;54.682;30.662;2023-12-04T14:02:55;15.82;;;7.55;;
53688;SDS011;39583;54.682;30.662;2023-12-04T14:05:33;18.38;;;8.38;;
53688;SDS011;39583;54.682;30.662;2023-12-04T14:08:04;18.02;;;8.07;;
53688;SDS011;39583;54.682;30.662;2023-12-04T14:10:32;16.35;;;7.63;;
53688;SDS011;39583;54.682;30.662;2023-12-04T14:13:01;18.98;;;7.22;;
53688;SDS011;39583;54.682;30.662;2023-12-04T14:15:28;17.67;;;7.72;;
53688;SDS011;39583;54.682;30.662;2023-12-04T14:17:56;17.70;;;7.80;;
53688;SDS011;39583;54.682;30.662;2023-12-04T14:20:24;18.33;;;7.93;;
53688;SDS011;39583;54.682;30.662;2023-12-04T14:22:52;19.55;;;7.55;;
53688;SDS011;39583;54.682;30.662;2023-12-04T14:25:20;16.65;;;7.20;;
53688;SDS011;39583;54.682;30.662;2023-12-04T14:27:48;16.73;;;8.07;;
53688;SDS011;39583;54.682;30.662;2023-12-04T14:30:15;14.02;;;7.03;;
53688;SDS011;39583;54.682;30.662;2023-12-04T14:32:43;18.60;;;7.57;;
53688;SDS011;39583;54.682;30.662;2023-12-04T14:35:14;14.82;;;6.50;;
53688;SDS011;39583;54.682;30.662;2023-12-04T14:37:42;14.63;;;7.20;;
53688;SDS011;39583;54.682;30.662;2023-12-04T14:40:12;16.58;;;8.40;;
53688;SDS011;39583;54.682;30.662;2023-12-04T14:42:43;17.02;;;8.40;;
53688;SDS011;39583;54.682;30.662;2023-12-04T14:45:14;19.63;;;7.70;;
53688;SDS011;39583;54.682;30.662;2023-12-04T14:47:43;16.87;;;8.13;;
53688;SDS011;39583;54.682;30.662;2023-12-04T14:50:11;18.58;;;8.88;;
53688;SDS011;39583;54.682;30.662;2023-12-04T14:52:38;20.25;;;8.88;;
53688;SDS011;39583;54.682;30.662;2023-12-04T14:55:14;15.45;;;7.35;;
53688;SDS011;39583;54.682;30.662;2023-12-04T14:57:51;17.10;;;8.20;;
53688;SDS011;39583;54.682;30.662;2023-12-04T15:00:25;15.80;;;7.45;;
53688;SDS011;39583;54.682;30.662;2023-12-04T15:03:13;15.20;;;5.75;;
53688;SDS011;39583;54.682;30.662;2023-12-04T15:05:41;15.38;;;7.65;;
53688;SDS011;39583;54.682;30.662;2023-12-04T15:08:32;16.25;;;6.45;;
53688;SDS011;39583;54.682;30.662;2023-12-04T15:11:19;16.40;;;7.20;;
53688;SDS011;39583;54.682;30.662;2023-12-04T15:14:07;16.85;;;7.50;;
53688;SDS011;39583;54.682;30.662;2023-12-04T15:16:35;15.13;;;6.03;;
53688;SDS011;39583;54.682;30.662;2023-12-04T15:19:10;12.68;;;5.55;;
53688;SDS011;39583;54.682;30.662;2023-12-04T15:21:57;13.95;;;6.15;;
53688;SDS011;39583;54.682;30.662;2023-12-04T15:24:24;14.43;;;6.15;;
53688;SDS011;39583;54.682;30.662;2023-12-04T15:26:52;12.95;;;5.35;;
53688;SDS011;39583;54.682;30.662;2023-12-04T15:29:20;14.32;;;6.72;;
53688;SDS011;39583;54.682;30.662;2023-12-04T15:31:48;12.23;;;4.80;;
53688;SDS011;39583;54.682;30.662;2023-12-04T15:34:16;10.95;;;5.57;;
53688;SDS011;39583;54.682;30.662;2023-12-04T15:36:45;9.48;;;5.10;;
53688;SDS011;39583;54.682;30.662;2023-12-04T15:39:13;11.85;;;5.22;;
53688;SDS011;39583;54.682;30.662;2023-12-04T15:44:14;13.05;;;6.10;;
53688;SDS011;39583;54.682;30.662;2023-12-04T15:46:42;15.70;;;5.22;;
53688;SDS011;39583;54.682;30.662;2023-12-04T15:49:10;9.77;;;4.70;;
53688;SDS011;39583;54.682;30.662;2023-12-04T15:51:38;13.88;;;5.50;;
53688;SDS011;39583;54.682;30.662;2023-12-04T15:54:06;11.38;;;5.88;;
53688;SDS011;39583;54.682;30.662;2023-12-04T15:56:34;13.15;;;4.75;;
53688;SDS011;39583;54.682;30.662;2023-12-04T15:59:01;13.13;;;6.00;;
53688;SDS011;39583;54.682;30.662;2023-12-04T16:01:29;11.80;;;5.05;;
53688;SDS011;39583;54.682;30.662;2023-12-04T16:03:58;13.60;;;5.78;;
53688;SDS011;39583;54.682;30.662;2023-12-04T16:06:26;12.75;;;5.10;;
53688;SDS011;39583;54.682;30.662;2023-12-04T16:08:54;12.80;;;6.03;;
53688;SDS011;39583;54.682;30.662;2023-12-04T16:11:24;14.18;;;6.60;;
53688;SDS011;39583;54.682;30.662;2023-12-04T16:13:51;12.63;;;5.28;;
53688;SDS011;39583;54.682;30.662;2023-12-04T16:16:19;12.43;;;4.60;;
53688;SDS011;39583;54.682;30.662;2023-12-04T16:18:46;13.80;;;4.72;;
53688;SDS011;39583;54.682;30.662;2023-12-04T16:21:14;13.57;;;4.82;;
53688;SDS011;39583;54.682;30.662;2023-12-04T16:23:41;11.35;;;4.88;;
53688;SDS011;39583;54.682;30.662;2023-12-04T16:26:10;11.48;;;5.20;;
53688;SDS011;39583;54.682;30.662;2023-12-04T16:28:37;10.73;;;5.03;;
53688;SDS011;39583;54.682;30.662;2023-12-04T16:31:06;12.30;;;5.57;;
53688;SDS011;39583;54.682;30.662;2023-12-04T16:33:34;11.38;;;5.32;;
53688;SDS011;39583;54.682;30.662;2023-12-04T16:36:01;14.65;;;6.47;;
53688;SDS011;39583;54.682;30.662;2023-12-04T16:38:29;12.38;;;5.78;;
53688;SDS011;39583;54.682;30.662;2023-12-04T16:40:58;11.30;;;5.22;;
53688;SDS011;39583;54.682;30.662;2023-12-04T16:43:28;10.57;;;4.72;;
53688;SDS011;39583;54.682;30.662;2023-12-04T16:45:56;12.50;;;5.93;;
53688;SDS011;39583;54.682;30.662;2023-12-04T16:48:24;11.27;;;5.65;;
53688;SDS011;39583;54.682;30.662;2023-12-04T16:50:52;15.98;;;5.45;;
53688;SDS011;39583;54.682;30.662;2023-12-04T16:53:20;10.60;;;4.82;;
53688;SDS011;39583;54.682;30.662;2023-12-04T16:55:47;11.85;;;4.70;;
53688;SDS011;39583;54.682;30.662;2023-12-04T16:58:15;9.73;;;4.80;;
53688;SDS011;39583;54.682;30.662;2023-12-04T17:00:43;18.10;;;5.70;;
53688;SDS011;39583;54.682;30.662;2023-12-04T17:03:11;11.77;;;5.10;;
53688;SDS011;39583;54.682;30.662;2023-12-04T17:05:38;18.20;;;5.72;;
53688;SDS011;39583;54.682;30.662;2023-12-04T17:08:06;9.75;;;4.85;;
53688;SDS011;39583;54.682;30.662;2023-12-04T17:10:34;10.65;;;5.13;;
53688;SDS011;39583;54.682;30.662;2023-12-04T17:13:01;10.05;;;4.43;;
53688;SDS011;39583;54.682;30.662;2023-12-04T17:15:29;9.45;;;5.20;;
53688;SDS011;39583;54.682;30.662;2023-12-04T17:17:58;9.68;;;4.60;;
53688;SDS011;39583;54.682;30.662;2023-12-04T17:20:26;11.73;;;5.18;;
53688;SDS011;39583;54.682;30.662;2023-12-04T17:22:54;13.93;;;5.32;;
53688;SDS011;39583;54.682;30.662;2023-12-04T17:25:22;9.80;;;4.78;;
53688;SDS011;39583;54.682;30.662;2023-12-04T17:27:50;9.88;;;5.03;;
53688;SDS011;39583;54.682;30.662;2023-12-04T17:30:18;9.18;;;3.60;;
53688;SDS011;39583;54.682;30.662;2023-12-04T17:32:46;10.95;;;4.47;;
53688;SDS011;39583;54.682;30.662;2023-12-04T17:35:15;9.73;;;5.10;;
53688;SDS011;39583;54.682;30.662;2023-12-04T17:37:43;10.40;;;4.35;;
53688;SDS011;39583;54.682;30.662;2023-12-04T17:40:11;9.85;;;4.47;;
53688;SDS011;39583;54.682;30.662;2023-12-04T17:42:43;9.38;;;4.45;;
53688;SDS011;39583;54.682;30.662;2023-12-04T17:45:11;10.60;;;4.90;;
53688;SDS011;39583;54.682;30.662;2023-12-04T17:47:39;9.13;;;4.32;;
53688;SDS011;39583;54.682;30.662;2023-12-04T17:50:06;9.88;;;4.55;;
53688;SDS011;39583;54.682;30.662;2023-12-04T17:52:35;10.15;;;4.53;;
53688;SDS011;39583;54.682;30.662;2023-12-04T17:55:03;13.55;;;5.25;;
53688;SDS011;39583;54.682;30.662;2023-12-04T17:57:32;8.68;;;4.57;;
53688;SDS011;39583;54.682;30.662;2023-12-04T18:00:01;10.63;;;4.80;;
53688;SDS011;39583;54.682;30.662;2023-12-04T18:02:36;9.75;;;4.53;;
